Time;durP1;ratioP1;P1;durP2;ratioP2;P2;SDS_P1;SDS_P2;PMS_P1;PMS_P2;Temp;Humidity;BMP_temperature;BMP_pressure;BME280_temperature;BME280_humidity;BME280_pressure;Samples;Min_cycle;Max_cycle;Signal;HPM_P1;HPM_P2
2021/08/19 00:01:25;;;;;;;27.75;11.98;;;27.80;75.30;;;;;;5036976;28;20075;-69
2021/08/19 00:03:50;;;;;;;28.10;11.93;;;27.80;75.10;;;;;;5036596;28;20313;-70
2021/08/19 00:06:16;;;;;;;25.88;11.40;;;27.80;75.00;;;;;;5036768;28;20102;-69
2021/08/19 00:08:42;;;;;;;21.08;11.13;;;27.80;75.20;;;;;;5036709;28;20033;-70
2021/08/19 00:11:09;;;;;;;24.85;11.50;;;27.80;75.00;;;;;;5036811;28;20025;-69
2021/08/19 00:13:35;;;;;;;22.33;10.73;;;27.80;75.40;;;;;;5036618;28;20418;-69
2021/08/19 00:16:01;;;;;;;22.67;11.27;;;27.70;75.10;;;;;;5036586;28;20022;-69
2021/08/19 00:18:26;;;;;;;25.42;11.90;;;27.70;75.30;;;;;;5019157;28;20029;-69
2021/08/19 00:20:52;;;;;;;24.52;10.63;;;27.70;75.20;;;;;;5036344;28;20014;-69
2021/08/19 00:23:18;;;;;;;24.38;10.52;;;27.70;75.10;;;;;;5036439;28;20033;-68
2021/08/19 00:25:44;;;;;;;27.38;11.65;;;27.70;75.20;;;;;;5036425;28;20375;-69
2021/08/19 00:28:10;;;;;;;26.52;12.00;;;27.70;75.30;;;;;;5036618;28;20022;-69
2021/08/19 00:30:37;;;;;;;19.65;10.05;;;27.70;75.40;;;;;;5036214;28;20026;-68
2021/08/19 00:33:02;;;;;;;29.65;11.70;;;27.70;75.20;;;;;;5036382;28;20418;-69
2021/08/19 00:35:28;;;;;;;24.63;11.90;;;27.70;75.00;;;;;;5036498;28;20021;-69
2021/08/19 00:37:54;;;;;;;26.52;11.70;;;27.70;74.90;;;;;;5036152;28;20033;-69
2021/08/19 00:40:20;;;;;;;25.95;11.50;;;27.70;75.00;;;;;;5036056;28;20113;-69
2021/08/19 00:42:46;;;;;;;22.20;11.00;;;27.70;75.10;;;;;;5036166;28;20037;-69
2021/08/19 00:45:12;;;;;;;30.98;11.68;;;27.60;75.40;;;;;;5035964;28;20041;-69
2021/08/19 00:47:38;;;;;;;21.83;11.73;;;27.60;75.30;;;;;;5036278;28;20151;-69
2021/08/19 00:50:06;;;;;;;24.58;11.00;;;27.60;75.30;;;;;;5036061;28;20041;-68
2021/08/19 00:52:32;;;;;;;24.48;11.38;;;27.50;75.40;;;;;;5035783;28;20360;-68
2021/08/19 00:54:59;;;;;;;21.15;11.25;;;27.50;75.70;;;;;;5035866;28;20037;-69
2021/08/19 00:57:24;;;;;;;26.27;11.70;;;27.60;75.90;;;;;;5035809;28;20387;-68
2021/08/19 00:59:52;;;;;;;24.23;12.05;;;27.50;75.70;;;;;;5035899;28;20025;-69
2021/08/19 01:02:20;;;;;;;26.40;11.77;;;27.60;75.90;;;;;;5035895;28;20462;-69
2021/08/19 01:04:46;;;;;;;30.63;11.77;;;27.60;75.60;;;;;;5034601;28;20091;-69
2021/08/19 01:07:13;;;;;;;22.42;10.88;;;27.50;75.50;;;;;;5035511;28;20459;-69
2021/08/19 01:09:40;;;;;;;27.00;12.77;;;27.50;75.60;;;;;;5035398;28;20079;-70
2021/08/19 01:12:08;;;;;;;24.25;11.88;;;27.50;77.20;;;;;;5035506;28;20073;-68
2021/08/19 01:14:34;;;;;;;20.83;11.63;;;27.50;76.90;;;;;;5035342;28;20040;-70
2021/08/19 01:17:08;;;;;;;27.77;12.40;;;27.50;77.30;;;;;;5035747;28;20029;-70
2021/08/19 01:19:35;;;;;;;32.95;12.05;;;27.40;77.60;;;;;;5035282;28;20433;-69
2021/08/19 01:22:01;;;;;;;21.60;12.27;;;27.40;77.80;;;;;;5035360;28;20018;-69
2021/08/19 01:24:26;;;;;;;27.20;12.45;;;27.40;77.60;;;;;;5034979;28;20037;-69
2021/08/19 01:26:54;;;;;;;23.25;12.32;;;27.40;77.60;;;;;;5035238;28;20024;-69
2021/08/19 01:29:20;;;;;;;25.45;11.73;;;27.40;78.20;;;;;;5035485;28;20029;-69
2021/08/19 01:32:00;;;;;;;31.02;13.20;;;27.40;77.80;;;;;;5035116;28;20024;-69
2021/08/19 01:34:27;;;;;;;24.05;12.25;;;27.30;78.40;;;;;;5036612;28;20561;-70
2021/08/19 01:36:52;;;;;;;23.98;12.20;;;27.30;78.30;;;;;;5036395;28;20083;-69
2021/08/19 01:39:18;;;;;;;34.03;13.40;;;27.30;78.20;;;;;;5035156;28;20101;-69
2021/08/19 01:41:44;;;;;;;32.17;12.13;;;27.30;78.50;;;;;;5034994;28;20046;-69
2021/08/19 01:44:10;;;;;;;25.02;12.77;;;27.30;78.80;;;;;;5034794;28;20425;-69
2021/08/19 01:46:36;;;;;;;30.27;13.65;;;27.30;78.90;;;;;;5034720;28;20029;-69
2021/08/19 01:49:04;;;;;;;31.05;13.90;;;27.30;78.90;;;;;;5034819;28;20061;-69
2021/08/19 01:51:33;;;;;;;25.67;11.70;;;27.20;79.00;;;;;;5034626;28;20030;-69
2021/08/19 01:53:59;;;;;;;26.15;11.93;;;27.30;79.00;;;;;;5034610;28;20025;-68
2021/08/19 01:56:25;;;;;;;28.25;12.45;;;27.30;78.90;;;;;;5034692;28;20022;-68
2021/08/19 01:58:53;;;;;;;30.67;12.73;;;27.30;78.30;;;;;;5034693;28;20037;-69
2021/08/19 02:01:20;;;;;;;28.42;12.77;;;27.30;78.80;;;;;;5016665;28;20030;-68
2021/08/19 02:03:46;;;;;;;34.78;14.00;;;27.30;79.10;;;;;;5034230;28;20120;-69
2021/08/19 02:06:12;;;;;;;27.95;12.77;;;27.30;79.30;;;;;;5034800;28;20026;-69
2021/08/19 02:08:38;;;;;;;25.92;13.00;;;27.30;79.10;;;;;;5034550;28;20155;-69
2021/08/19 02:11:04;;;;;;;27.60;12.00;;;27.30;79.00;;;;;;5034709;28;20033;-68
2021/08/19 02:13:29;;;;;;;27.15;12.75;;;27.30;79.00;;;;;;5034236;28;20032;-68
2021/08/19 02:15:55;;;;;;;26.23;12.63;;;27.30;79.20;;;;;;5034634;28;20034;-68
2021/08/19 02:18:20;;;;;;;26.90;13.13;;;27.30;79.00;;;;;;5034852;28;20032;-69
2021/08/19 02:20:46;;;;;;;26.83;13.10;;;27.20;79.40;;;;;;5034629;28;20071;-69
2021/08/19 02:23:12;;;;;;;30.63;13.63;;;27.20;79.50;;;;;;5016663;28;20029;-68
2021/08/19 02:25:37;;;;;;;27.88;12.68;;;27.20;78.40;;;;;;5034191;28;20125;-69
2021/08/19 02:28:03;;;;;;;22.60;12.18;;;27.20;78.30;;;;;;5034361;28;20053;-68
2021/08/19 02:30:29;;;;;;;27.48;12.65;;;27.20;78.30;;;;;;5034639;28;20025;-69
2021/08/19 02:32:57;;;;;;;23.25;11.20;;;27.20;78.30;;;;;;5034793;28;20037;-68
2021/08/19 02:35:28;;;;;;;23.92;11.27;;;27.20;77.30;;;;;;5034669;28;20100;-68
2021/08/19 02:37:55;;;;;;;24.67;10.30;;;27.20;77.60;;;;;;5017234;28;20036;-68
2021/08/19 02:40:22;;;;;;;14.85;8.80;;;27.10;76.50;;;;;;5034359;28;20475;-69
2021/08/19 02:42:47;;;;;;;16.25;9.40;;;27.00;76.20;;;;;;5033965;28;20022;-69
2021/08/19 02:45:14;;;;;;;15.10;8.45;;;27.00;74.50;;;;;;5033976;28;20485;-68
2021/08/19 02:47:40;;;;;;;18.77;8.45;;;27.00;74.00;;;;;;5033898;28;20052;-69
2021/08/19 02:50:06;;;;;;;14.77;7.22;;;27.00;73.10;;;;;;5034131;28;20030;-68
2021/08/19 02:52:32;;;;;;;12.50;7.72;;;27.00;72.70;;;;;;5033814;28;20108;-69
2021/08/19 02:54:58;;;;;;;13.38;8.02;;;27.00;72.50;;;;;;5033469;28;20517;-69
2021/08/19 02:57:23;;;;;;;15.80;8.10;;;26.90;72.30;;;;;;5033758;28;20445;-70
2021/08/19 02:59:49;;;;;;;13.70;7.82;;;27.00;72.00;;;;;;5033738;28;20025;-69
2021/08/19 03:02:14;;;;;;;12.82;7.57;;;27.00;71.60;;;;;;5033770;28;20100;-68
2021/08/19 03:04:40;;;;;;;12.25;7.25;;;27.00;71.50;;;;;;5033465;28;20065;-68
2021/08/19 03:07:09;;;;;;;13.80;7.65;;;27.00;70.90;;;;;;5033326;28;20029;-68
2021/08/19 03:09:35;;;;;;;12.60;7.75;;;27.00;70.60;;;;;;5033266;28;20512;-68
2021/08/19 03:12:01;;;;;;;12.35;7.32;;;27.00;70.40;;;;;;5033458;28;20037;-69
2021/08/19 03:14:27;;;;;;;14.88;7.93;;;27.00;70.50;;;;;;5033355;28;20026;-68
2021/08/19 03:16:52;;;;;;;12.32;7.75;;;26.90;70.70;;;;;;5033323;28;20486;-68
2021/08/19 03:19:18;;;;;;;17.25;7.88;;;26.90;70.60;;;;;;5033387;28;20032;-68
2021/08/19 03:21:44;;;;;;;13.15;7.53;;;26.80;70.60;;;;;;5033350;28;20034;-68
2021/08/19 03:24:09;;;;;;;13.00;8.18;;;26.80;70.40;;;;;;5033105;28;20041;-68
2021/08/19 03:26:35;;;;;;;12.25;7.45;;;26.80;70.40;;;;;;5032522;28;20022;-69
2021/08/19 03:29:01;;;;;;;14.15;7.70;;;26.80;70.50;;;;;;5033387;28;20021;-69
2021/08/19 03:31:27;;;;;;;14.13;7.63;;;26.80;70.30;;;;;;5033286;28;20032;-69
2021/08/19 03:33:53;;;;;;;13.20;7.15;;;26.70;70.40;;;;;;5033105;28;20053;-68
2021/08/19 03:36:19;;;;;;;12.25;7.03;;;26.70;70.60;;;;;;5015382;28;20031;-69
2021/08/19 03:38:44;;;;;;;12.68;6.97;;;26.70;70.30;;;;;;5033139;28;20025;-68
2021/08/19 03:41:11;;;;;;;14.55;8.10;;;26.70;70.20;;;;;;5033190;28;20021;-68
2021/08/19 03:43:38;;;;;;;14.95;6.72;;;26.70;70.30;;;;;;5032870;28;20064;-68
2021/08/19 03:46:04;;;;;;;12.93;7.88;;;26.70;70.70;;;;;;5033089;28;20064;-68
2021/08/19 03:48:30;;;;;;;15.07;8.18;;;26.70;70.50;;;;;;5014998;28;20491;-69
2021/08/19 03:50:56;;;;;;;13.27;7.35;;;26.70;70.30;;;;;;5032932;28;20120;-67
2021/08/19 03:53:22;;;;;;;12.80;7.22;;;26.70;70.40;;;;;;5033141;28;20029;-69
2021/08/19 03:55:48;;;;;;;11.82;7.30;;;26.70;70.50;;;;;;5015092;28;20433;-69
2021/08/19 03:58:13;;;;;;;12.52;7.45;;;26.50;70.60;;;;;;5032914;28;20410;-69
2021/08/19 04:00:39;;;;;;;13.07;7.63;;;26.50;70.60;;;;;;5033232;28;20037;-68
2021/08/19 04:03:05;;;;;;;10.13;7.15;;;26.50;70.60;;;;;;5032741;28;20551;-68
2021/08/19 04:05:30;;;;;;;12.27;6.70;;;26.50;70.50;;;;;;5032793;28;20038;-68
2021/08/19 04:07:56;;;;;;;14.75;7.60;;;26.50;70.40;;;;;;5032823;28;20371;-68
2021/08/19 04:10:22;;;;;;;12.38;6.30;;;26.50;70.10;;;;;;5033068;28;20078;-68
2021/08/19 04:12:47;;;;;;;13.85;7.40;;;26.50;70.00;;;;;;5032708;28;20428;-67
2021/08/19 04:15:13;;;;;;;11.52;7.18;;;26.50;70.00;;;;;;5032859;28;20443;-68
2021/08/19 04:17:39;;;;;;;16.35;7.93;;;26.50;70.20;;;;;;5032655;28;20494;-68
2021/08/19 04:20:06;;;;;;;14.18;7.68;;;26.50;70.30;;;;;;5033884;28;20030;-70
2021/08/19 04:22:34;;;;;;;14.32;7.95;;;26.50;70.20;;;;;;5035174;28;20033;-66
2021/08/19 04:24:59;;;;;;;16.02;8.15;;;26.40;69.80;;;;;;5032638;28;20045;-69
2021/08/19 04:27:25;;;;;;;12.85;7.53;;;26.30;70.00;;;;;;5032670;28;20374;-69
2021/08/19 04:29:51;;;;;;;12.30;7.60;;;26.30;69.80;;;;;;5032960;28;20069;-68
2021/08/19 04:32:17;;;;;;;14.18;7.88;;;26.30;69.90;;;;;;5032726;28;20428;-69
2021/08/19 04:34:43;;;;;;;13.85;7.55;;;26.20;70.10;;;;;;5032427;28;20048;-67
2021/08/19 04:37:08;;;;;;;14.07;7.72;;;26.20;70.10;;;;;;5032554;28;20112;-68
2021/08/19 04:39:34;;;;;;;11.52;6.90;;;26.20;70.00;;;;;;5036153;28;20026;-69
2021/08/19 04:42:00;;;;;;;13.82;7.70;;;26.20;70.10;;;;;;5036282;28;20060;-69
2021/08/19 04:44:25;;;;;;;14.68;7.05;;;26.10;69.90;;;;;;5036518;28;20040;-69
2021/08/19 04:46:51;;;;;;;15.00;8.10;;;26.20;69.80;;;;;;5036108;28;20021;-68
2021/08/19 04:49:17;;;;;;;14.02;7.20;;;26.10;69.50;;;;;;5035820;28;20049;-69
2021/08/19 04:51:43;;;;;;;15.82;7.38;;;26.00;69.40;;;;;;5036017;28;20021;-69
2021/08/19 04:54:09;;;;;;;16.98;7.70;;;26.10;69.20;;;;;;5036073;28;20040;-66
2021/08/19 04:56:38;;;;;;;13.38;8.23;;;26.10;69.30;;;;;;5036137;28;20025;-68
2021/08/19 04:59:04;;;;;;;13.45;7.20;;;26.00;69.30;;;;;;5035865;28;20052;-67
2021/08/19 05:01:30;;;;;;;12.40;7.40;;;26.00;69.40;;;;;;5035810;28;20517;-66
2021/08/19 05:03:58;;;;;;;10.50;7.25;;;26.00;69.30;;;;;;5026693;28;20029;-68
2021/08/19 05:06:25;;;;;;;12.73;7.50;;;26.10;69.50;;;;;;5055601;28;20033;-66
2021/08/19 05:08:51;;;;;;;15.88;7.40;;;26.10;69.60;;;;;;5055624;28;20017;-66
2021/08/19 05:11:18;;;;;;;12.55;8.13;;;26.10;69.00;;;;;;5055490;28;20029;-65
2021/08/19 05:13:44;;;;;;;15.07;8.02;;;26.20;68.80;;;;;;5027283;28;20375;-65
2021/08/19 05:16:09;;;;;;;13.45;6.75;;;26.20;68.30;;;;;;5055433;28;20021;-64
2021/08/19 05:18:35;;;;;;;13.30;7.25;;;26.30;68.10;;;;;;5055448;28;20060;-65
2021/08/19 05:21:01;;;;;;;14.25;7.93;;;26.20;68.00;;;;;;5052057;28;20025;-66
2021/08/19 05:23:27;;;;;;;12.95;7.55;;;26.30;68.10;;;;;;5055084;28;20031;-65
2021/08/19 05:25:52;;;;;;;13.30;7.30;;;26.30;68.00;;;;;;5051977;28;20039;-66
2021/08/19 05:28:18;;;;;;;15.15;7.85;;;26.40;68.40;;;;;;5055304;28;20056;-65
2021/08/19 05:30:44;;;;;;;10.45;7.22;;;26.40;68.30;;;;;;5055625;28;20025;-66
2021/08/19 05:33:09;;;;;;;17.35;7.88;;;26.40;68.30;;;;;;5055016;28;20549;-66
2021/08/19 05:35:35;;;;;;;13.95;7.85;;;26.50;68.10;;;;;;5054683;28;20025;-66
2021/08/19 05:38:01;;;;;;;11.50;7.43;;;26.50;67.90;;;;;;5051111;28;20033;-69
2021/08/19 05:40:26;;;;;;;15.50;7.20;;;26.60;67.50;;;;;;5053738;28;20029;-69
2021/08/19 05:42:52;;;;;;;13.85;6.78;;;26.80;67.30;;;;;;5054852;28;20104;-68
2021/08/19 05:45:18;;;;;;;13.15;7.57;;;26.90;66.80;;;;;;5036817;28;20044;-68
2021/08/19 05:47:43;;;;;;;13.52;7.97;;;27.10;66.00;;;;;;5054552;28;20468;-69
2021/08/19 05:50:12;;;;;;;15.10;8.25;;;27.30;65.50;;;;;;5054393;28;20036;-71
2021/08/19 05:52:38;;;;;;;15.70;7.13;;;27.40;64.50;;;;;;5054848;28;20123;-70
2021/08/19 05:55:05;;;;;;;10.90;7.07;;;27.60;64.20;;;;;;5054918;28;20032;-69
2021/08/19 05:57:31;;;;;;;12.30;7.20;;;27.80;63.60;;;;;;5054545;28;20025;-67
2021/08/19 05:59:57;;;;;;;11.55;7.32;;;27.70;63.20;;;;;;5054635;28;20043;-68
2021/08/19 06:02:23;;;;;;;14.52;7.55;;;27.50;63.40;;;;;;5054491;28;20155;-69
2021/08/19 06:04:48;;;;;;;15.65;8.00;;;27.40;63.60;;;;;;5054602;28;20490;-68
2021/08/19 06:07:14;;;;;;;14.13;7.43;;;27.50;63.50;;;;;;5042802;28;20025;-69
2021/08/19 06:09:40;;;;;;;15.90;7.50;;;27.60;62.90;;;;;;5044781;28;20025;-68
2021/08/19 06:12:06;;;;;;;18.25;7.75;;;27.60;62.90;;;;;;5043168;28;20327;-69
2021/08/19 06:14:32;;;;;;;14.73;7.85;;;27.80;62.60;;;;;;5045979;28;20025;-68
2021/08/19 06:16:58;;;;;;;15.63;7.45;;;28.00;61.90;;;;;;5039365;28;20029;-67
2021/08/19 06:19:24;;;;;;;14.50;6.80;;;28.30;60.70;;;;;;5016691;28;20026;-69
2021/08/19 06:21:50;;;;;;;13.50;7.20;;;28.40;60.30;;;;;;5035538;28;20057;-68
2021/08/19 06:24:16;;;;;;;18.13;7.80;;;28.40;60.00;;;;;;5044889;28;20038;-67
2021/08/19 06:26:42;;;;;;;18.27;7.70;;;28.60;59.90;;;;;;5041862;28;20029;-69
2021/08/19 06:29:07;;;;;;;28.95;8.32;;;28.70;58.90;;;;;;5041749;28;20028;-68
2021/08/19 06:31:33;;;;;;;19.67;7.13;;;28.90;58.40;;;;;;5048357;28;20025;-69
2021/08/19 06:33:59;;;;;;;16.55;7.50;;;29.00;57.90;;;;;;5041416;28;20104;-68
2021/08/19 06:36:24;;;;;;;16.63;7.70;;;28.90;58.10;;;;;;5043657;28;20078;-69
2021/08/19 06:38:53;;;;;;;21.15;8.15;;;28.90;58.20;;;;;;5035712;28;20017;-67
2021/08/19 06:41:24;;;;;;;21.10;8.68;;;29.10;58.10;;;;;;5053743;28;20032;-68
2021/08/19 06:43:49;;;;;;;21.70;7.85;;;29.20;57.20;;;;;;5053398;28;20116;-67
2021/08/19 06:46:15;;;;;;;26.40;8.18;;;29.50;57.10;;;;;;5053933;28;20120;-69
2021/08/19 06:48:41;;;;;;;17.08;8.10;;;29.70;56.70;;;;;;5053355;28;20486;-69
2021/08/19 06:51:06;;;;;;;14.98;7.82;;;29.60;56.60;;;;;;5053458;28;20028;-68
2021/08/19 06:53:33;;;;;;;22.83;8.18;;;29.50;56.80;;;;;;5053377;28;20499;-69
2021/08/19 06:55:58;;;;;;;18.15;7.18;;;29.40;56.90;;;;;;5053440;28;20120;-68
2021/08/19 06:58:24;;;;;;;18.70;8.60;;;29.30;56.90;;;;;;5053456;28;20028;-69
2021/08/19 07:00:50;;;;;;;39.53;10.30;;;29.20;57.20;;;;;;5052772;28;20033;-68
2021/08/19 07:03:16;;;;;;;89.60;14.32;;;29.10;57.60;;;;;;5052791;28;20492;-70
2021/08/19 07:05:43;;;;;;;26.25;9.00;;;29.00;57.40;;;;;;5053431;28;20041;-68
2021/08/19 07:08:10;;;;;;;43.83;10.88;;;29.00;57.40;;;;;;5053240;28;20020;-70
2021/08/19 07:10:36;;;;;;;19.63;7.72;;;28.80;57.80;;;;;;5053119;28;20517;-68
2021/08/19 07:13:02;;;;;;;18.83;8.35;;;28.60;58.30;;;;;;5052951;28;20021;-69
2021/08/19 07:15:28;;;;;;;20.35;7.57;;;28.60;58.70;;;;;;5037563;28;20056;-68
2021/08/19 07:17:54;;;;;;;24.27;8.40;;;28.50;58.90;;;;;;5054317;28;20021;-69
2021/08/19 07:20:19;;;;;;;22.70;8.55;;;28.50;59.30;;;;;;5053288;28;20032;-69
2021/08/19 07:22:45;;;;;;;51.85;12.20;;;28.70;59.10;;;;;;5052965;28;20021;-69
2021/08/19 07:25:15;;;;;;;18.10;9.10;;;28.80;58.10;;;;;;5052974;28;20474;-69
2021/08/19 07:27:42;;;;;;;17.27;8.25;;;28.90;58.00;;;;;;5053196;28;20021;-69
2021/08/19 07:30:09;;;;;;;17.85;8.32;;;28.90;57.70;;;;;;5052801;28;20111;-69
2021/08/19 07:32:35;;;;;;;16.23;7.82;;;29.00;57.90;;;;;;5053055;28;20052;-70
2021/08/19 07:35:02;;;;;;;15.00;8.50;;;29.10;57.80;;;;;;5052989;28;20080;-70
2021/08/19 07:37:30;;;;;;;21.20;8.75;;;29.20;57.10;;;;;;5053559;28;20021;-67
2021/08/19 07:39:56;;;;;;;27.58;8.95;;;29.50;57.30;;;;;;5052960;28;20029;-69
2021/08/19 07:42:22;;;;;;;23.13;8.50;;;29.70;56.90;;;;;;5052838;28;20504;-68
2021/08/19 07:44:48;;;;;;;14.40;7.90;;;30.00;56.80;;;;;;5052801;28;20040;-69
2021/08/19 07:47:13;;;;;;;21.90;9.30;;;30.10;56.10;;;;;;5052918;28;20146;-70
2021/08/19 07:49:39;;;;;;;58.10;12.60;;;30.10;56.10;;;;;;5052370;28;20485;-68
2021/08/19 07:52:05;;;;;;;36.40;11.48;;;30.30;55.90;;;;;;5052756;28;20029;-69
2021/08/19 07:54:31;;;;;;;20.80;8.65;;;30.30;56.00;;;;;;5052616;28;20481;-69
2021/08/19 07:56:56;;;;;;;16.85;7.72;;;30.40;55.80;;;;;;5053179;28;20029;-68
2021/08/19 07:59:22;;;;;;;16.08;8.00;;;30.40;55.70;;;;;;5052746;28;20450;-68
2021/08/19 08:01:48;;;;;;;17.55;8.25;;;30.30;55.50;;;;;;5052652;28;20423;-68
2021/08/19 08:04:14;;;;;;;16.88;9.23;;;30.30;55.70;;;;;;5034618;28;20025;-69
2021/08/19 08:06:40;;;;;;;14.80;7.40;;;30.30;55.80;;;;;;5034667;28;20473;-69
2021/08/19 08:09:07;;;;;;;17.35;8.50;;;30.50;55.60;;;;;;5052750;28;20021;-68
2021/08/19 08:11:33;;;;;;;21.17;8.93;;;30.60;55.50;;;;;;5052691;28;20032;-69
2021/08/19 08:14:01;;;;;;;15.82;8.43;;;30.70;55.50;;;;;;5055376;28;20094;-68
2021/08/19 08:16:27;;;;;;;13.43;8.40;;;30.70;55.50;;;;;;5056813;28;20029;-69
2021/08/19 08:18:54;;;;;;;15.35;8.68;;;30.70;55.60;;;;;;5038474;28;20025;-69
2021/08/19 08:21:20;;;;;;;17.42;8.57;;;30.70;55.50;;;;;;5056637;28;20033;-68
2021/08/19 08:23:48;;;;;;;18.85;8.63;;;30.60;55.40;;;;;;5056260;28;20028;-68
2021/08/19 08:26:14;;;;;;;16.58;8.45;;;30.50;55.50;;;;;;5056521;28;20044;-69
2021/08/19 08:28:39;;;;;;;19.33;8.75;;;30.40;55.60;;;;;;5056271;28;20024;-70
2021/08/19 08:31:05;;;;;;;18.77;8.98;;;30.40;55.80;;;;;;5038242;28;20116;-68
2021/08/19 08:33:32;;;;;;;15.70;8.35;;;30.40;55.80;;;;;;5056175;28;20462;-69
2021/08/19 08:35:59;;;;;;;21.63;9.73;;;30.40;56.10;;;;;;5037976;28;20027;-70
2021/08/19 08:38:26;;;;;;;18.00;9.07;;;30.40;55.70;;;;;;5056179;28;20056;-70
2021/08/19 08:40:53;;;;;;;20.63;9.13;;;30.40;55.60;;;;;;5056131;28;20470;-70
2021/08/19 08:43:21;;;;;;;17.13;8.85;;;30.40;55.40;;;;;;5037931;28;20021;-70
2021/08/19 08:45:48;;;;;;;22.77;9.52;;;30.40;55.80;;;;;;5056003;28;20060;-68
2021/08/19 08:48:17;;;;;;;24.33;9.57;;;30.30;55.70;;;;;;5055370;28;20044;-70
2021/08/19 08:50:46;;;;;;;20.88;9.10;;;30.30;55.80;;;;;;5056086;28;20500;-68
2021/08/19 08:53:13;;;;;;;371.38;47.67;;;30.30;55.70;;;;;;5055745;28;20540;-69
2021/08/19 08:55:39;;;;;;;60.33;12.38;;;30.40;56.00;;;;;;5055984;28;20024;-69
2021/08/19 08:58:08;;;;;;;28.40;10.20;;;30.30;56.00;;;;;;5055838;28;20053;-72
2021/08/19 09:00:35;;;;;;;93.13;16.63;;;30.20;55.70;;;;;;5055910;28;20021;-71
2021/08/19 09:03:00;;;;;;;41.13;11.18;;;30.30;55.80;;;;;;5037649;28;20025;-69
2021/08/19 09:05:29;;;;;;;26.17;9.38;;;30.40;55.90;;;;;;5055572;28;20052;-70
2021/08/19 09:08:00;;;;;;;24.80;8.95;;;30.40;55.70;;;;;;5055823;28;20036;-68
2021/08/19 09:10:28;;;;;;;28.83;9.57;;;30.40;55.30;;;;;;5055619;28;20107;-68
2021/08/19 09:12:55;;;;;;;35.13;10.75;;;30.40;55.50;;;;;;5055491;28;20426;-67
2021/08/19 09:15:23;;;;;;;45.78;11.27;;;30.40;55.60;;;;;;5055419;28;20036;-69
2021/08/19 09:17:55;;;;;;;122.47;19.30;;;30.40;55.40;;;;;;5055294;28;20543;-69
2021/08/19 09:20:30;;;;;;;45.40;12.05;;;30.40;55.60;;;;;;5055404;28;20082;-68
2021/08/19 09:23:00;;;;;;;31.65;9.18;;;30.30;55.40;;;;;;5055497;28;20104;-69
2021/08/19 09:25:27;;;;;;;53.00;11.65;;;30.30;55.50;;;;;;5054230;28;20072;-68
2021/08/19 09:28:14;;;;;;;53.13;13.07;;;30.30;55.40;;;;;;5037163;28;20029;-68
2021/08/19 09:30:52;;;;;;;82.88;14.90;;;30.40;56.10;;;;;;5055434;28;20029;-67
2021/08/19 09:33:21;;;;;;;34.97;10.30;;;30.50;55.40;;;;;;5055168;28;20028;-67
2021/08/19 09:35:49;;;;;;;48.72;10.65;;;30.50;55.50;;;;;;5055080;28;20017;-66
2021/08/19 09:38:20;;;;;;;27.38;10.40;;;30.50;55.50;;;;;;5055012;28;20060;-69
2021/08/19 09:41:13;;;;;;;39.45;11.40;;;30.40;55.30;;;;;;5055126;28;20482;-68
2021/08/19 09:43:41;;;;;;;21.30;8.88;;;30.50;55.60;;;;;;5054833;28;20328;-68
2021/08/19 09:46:07;;;;;;;19.00;9.63;;;30.50;55.50;;;;;;5054938;28;20106;-68
2021/08/19 09:48:34;;;;;;;25.75;10.20;;;30.50;55.60;;;;;;5054763;28;20060;-68
2021/08/19 09:51:21;;;;;;;24.65;9.45;;;30.60;55.70;;;;;;5037001;28;20474;-68
2021/08/19 09:53:50;;;;;;;17.70;9.02;;;30.70;55.10;;;;;;5054937;28;20052;-67
2021/08/19 09:56:27;;;;;;;28.95;11.55;;;30.80;55.40;;;;;;5054782;28;20049;-69
2021/08/19 09:58:52;;;;;;;18.40;9.30;;;30.80;54.70;;;;;;5054764;28;20013;-68
2021/08/19 10:01:18;;;;;;;18.73;9.43;;;30.90;55.10;;;;;;5055313;28;20047;-67
2021/08/19 10:03:45;;;;;;;41.00;10.50;;;30.90;55.10;;;;;;5054085;28;20027;-68
2021/08/19 10:06:11;;;;;;;25.92;9.38;;;30.90;54.90;;;;;;5054224;28;20108;-69
2021/08/19 10:08:36;;;;;;;19.85;8.73;;;31.00;55.00;;;;;;5054816;28;20013;-69
2021/08/19 10:11:03;;;;;;;19.02;8.88;;;31.00;54.50;;;;;;5054327;28;20036;-70
2021/08/19 10:13:31;;;;;;;18.20;8.52;;;31.10;54.40;;;;;;5054001;28;20023;-69
2021/08/19 10:15:59;;;;;;;29.13;9.98;;;31.10;54.50;;;;;;5054273;28;20028;-68
2021/08/19 10:18:32;;;;;;;23.02;9.80;;;31.20;54.40;;;;;;5054082;28;20036;-69
2021/08/19 10:21:19;;;;;;;30.08;10.25;;;31.30;53.80;;;;;;5054279;28;20078;-69
2021/08/19 10:23:47;;;;;;;35.53;10.88;;;31.40;53.90;;;;;;5053811;28;20051;-68
2021/08/19 10:26:19;;;;;;;21.27;9.40;;;31.40;54.40;;;;;;5054061;28;20032;-68
2021/08/19 10:28:46;;;;;;;22.98;9.80;;;31.50;54.20;;;;;;5054131;28;20082;-67
2021/08/19 10:31:14;;;;;;;24.00;9.32;;;31.50;54.50;;;;;;5054049;28;20029;-69
2021/08/19 10:33:39;;;;;;;18.50;7.47;;;31.60;53.90;;;;;;5053922;28;20033;-69
2021/08/19 10:36:28;;;;;;;19.88;8.20;;;31.60;53.60;;;;;;5053708;28;20025;-68
2021/08/19 10:39:19;;;;;;;16.52;8.10;;;31.70;52.80;;;;;;5053595;28;20109;-67
2021/08/19 10:41:52;;;;;;;20.42;9.40;;;31.80;52.50;;;;;;5053543;28;20028;-68
2021/08/19 10:44:18;;;;;;;20.67;8.13;;;31.80;52.50;;;;;;5053583;28;20118;-69
2021/08/19 10:46:46;;;;;;;13.95;7.68;;;31.80;53.30;;;;;;5053910;28;20068;-70
2021/08/19 10:49:30;;;;;;;22.08;8.07;;;31.70;52.90;;;;;;5035534;28;20409;-71
2021/08/19 10:52:08;;;;;;;29.42;9.57;;;31.70;52.50;;;;;;5053790;28;20466;-74
2021/08/19 10:54:41;;;;;;;17.30;7.82;;;31.70;52.60;;;;;;5053602;28;20150;-69
2021/08/19 10:57:30;;;;;;;15.68;8.75;;;31.80;52.80;;;;;;5053606;28;20390;-71
2021/08/19 11:00:09;;;;;;;21.55;8.82;;;31.80;52.70;;;;;;5035689;28;20457;-70
2021/08/19 11:02:39;;;;;;;18.08;8.35;;;31.70;51.30;;;;;;5053472;28;20421;-69
2021/08/19 11:05:21;;;;;;;15.75;8.77;;;31.70;52.70;;;;;;5053610;28;20044;-69
2021/08/19 11:07:54;;;;;;;20.10;8.68;;;31.70;51.20;;;;;;5053533;28;20381;-69
2021/08/19 11:10:21;;;;;;;;;;;31.60;51.50;;;;;;5053714;28;20032;-67
2021/08/19 11:12:47;;;;;;;20.67;9.25;;;31.70;52.80;;;;;;5053163;28;19904;-67
2021/08/19 11:15:13;;;;;;;20.13;8.40;;;31.80;53.40;;;;;;5053172;28;20103;-74
2021/08/19 11:17:51;;;;;;;31.45;9.57;;;31.80;53.10;;;;;;5053603;28;20409;-70
2021/08/19 11:20:33;;;;;;;18.75;9.25;;;31.90;52.90;;;;;;5053008;28;20468;-69
2021/08/19 11:22:59;;;;;;;26.63;8.93;;;31.90;51.30;;;;;;5053023;28;20416;-67
2021/08/19 11:25:24;;;;;;;15.45;8.57;;;32.00;53.10;;;;;;5053221;28;20123;-67
2021/08/19 11:27:50;;;;;;;15.85;8.65;;;32.00;52.70;;;;;;5053097;28;20021;-64
2021/08/19 11:30:40;;;;;;;21.85;8.15;;;32.10;52.70;;;;;;5052847;28;20371;-66
2021/08/19 11:33:10;;;;;;;36.45;9.65;;;32.20;52.50;;;;;;5052566;28;20029;-65
2021/08/19 11:35:37;;;;;;;26.15;8.57;;;32.40;52.10;;;;;;5052689;28;20090;-66
2021/08/19 11:38:16;;;;;;;19.42;8.73;;;32.40;52.20;;;;;;5052494;28;20033;-63
2021/08/19 11:40:45;;;;;;;21.40;8.38;;;32.30;50.60;;;;;;5035305;28;20021;-65
2021/08/19 11:43:31;;;;;;;18.70;8.70;;;32.40;52.30;;;;;;5052647;28;20489;-66
2021/08/19 11:46:06;;;;;;;21.73;9.73;;;32.40;50.20;;;;;;5052707;28;20326;-66
2021/08/19 11:48:32;;;;;;;26.48;9.85;;;32.40;52.60;;;;;;5051842;28;20057;-64
2021/08/19 11:50:59;;;;;;;17.05;8.90;;;32.40;52.40;;;;;;5052643;28;20013;-65
2021/08/19 11:53:25;;;;;;;23.65;9.57;;;32.40;52.80;;;;;;5052474;28;20120;-66
2021/08/19 11:55:52;;;;;;;21.65;9.57;;;32.40;52.60;;;;;;5034501;28;20025;-66
2021/08/19 11:58:23;;;;;;;18.73;9.35;;;32.30;53.40;;;;;;5052830;28;20025;-63
2021/08/19 12:01:08;;;;;;;18.15;9.13;;;32.20;52.40;;;;;;5052592;28;20147;-63
2021/08/19 12:03:40;;;;;;;19.35;9.93;;;32.20;52.00;;;;;;5052501;28;20043;-65
2021/08/19 12:06:07;;;;;;;17.07;9.17;;;32.10;52.20;;;;;;5052523;28;20567;-65
2021/08/19 12:08:35;;;;;;;18.30;8.93;;;32.00;53.30;;;;;;5052745;28;20027;-66
2021/08/19 12:11:02;;;;;;;17.15;8.70;;;32.00;53.80;;;;;;5052518;28;20045;-66
2021/08/19 12:13:28;;;;;;;16.70;8.98;;;32.10;53.90;;;;;;5034390;28;20386;-65
2021/08/19 12:15:55;;;;;;;16.85;8.50;;;32.20;53.60;;;;;;5052253;28;20112;-66
2021/08/19 12:18:22;;;;;;;15.43;8.55;;;32.30;53.40;;;;;;5052394;28;20184;-63
2021/08/19 12:20:50;;;;;;;19.58;9.93;;;32.40;53.00;;;;;;5052486;28;20033;-66
2021/08/19 12:23:19;;;;;;;21.45;10.18;;;32.50;53.40;;;;;;5052428;28;20036;-64
2021/08/19 12:25:45;;;;;;;19.05;10.05;;;32.60;53.50;;;;;;5052259;28;20132;-64
2021/08/19 12:28:11;;;;;;;97.07;16.25;;;32.70;53.90;;;;;;5052600;28;20021;-67
2021/08/19 12:30:58;;;;;;;25.08;10.85;;;32.80;54.00;;;;;;5052524;28;20059;-66
2021/08/19 12:33:37;;;;;;;18.45;10.70;;;32.90;52.80;;;;;;5052460;28;20424;-66
2021/08/19 12:36:08;;;;;;;22.77;10.50;;;32.90;54.20;;;;;;5052258;28;20112;-65